Time;durP1;ratioP1;P1;durP2;ratioP2;P2;SDS_P1;SDS_P2;PMS_P1;PMS_P2;Temp;Humidity;BMP_temperature;BMP_pressure;BME280_temperature;BME280_humidity;BME280_pressure;Samples;Min_cycle;Max_cycle;Signal;HPM_P1;HPM_P2
2022/04/08 00:01:25;;;;;;;;;;;;;;;;;;4169066;28;1546;-72
2022/04/08 00:03:45;;;;;;;;;;;;;;;;;;4169567;28;915;-71
2022/04/08 00:06:08;;;;;;;;;;;;;;;;;;4168884;28;978;-71
2022/04/08 00:08:29;;;;;;;;;;;;;;;;;;4169411;28;876;-70
2022/04/08 00:10:49;;;;;;;;;;;;;;;;;;4169993;28;913;-71
2022/04/08 00:13:10;;;;;;;;;;;;;;;;;;4171828;28;862;-70
2022/04/08 00:15:33;;;;;;;;;;;;;;;;;;4171871;28;1044;-71
2022/04/08 00:17:53;;;;;;;;;;;;;;;;;;4172131;28;1998;-70
2022/04/08 00:20:14;;;;;;;;;;;;;;;;;;4172106;28;978;-71
2022/04/08 00:22:38;;;;;;;;;;;;;;;;;;4180699;28;1567;-71
2022/04/08 00:24:59;;;;;;;;;;;;;;;;;;4188545;28;957;-70
2022/04/08 00:27:19;;;;;;;;;;;;;;;;;;4187874;28;1481;-70
2022/04/08 00:29:40;;;;;;;;;;;;;;;;;;4187855;28;1548;-70
2022/04/08 00:32:02;;;;;;;;;;;;;;;;;;4188459;28;900;-71
2022/04/08 00:34:23;;;;;;;;;;;;;;;;;;4188427;28;1409;-70
2022/04/08 00:36:44;;;;;;;;;;;;;;;;;;4188094;28;1240;-71
2022/04/08 00:39:05;;;;;;;;;;;;;;;;;;4186909;28;1983;-71
2022/04/08 00:41:26;;;;;;;;;;;;;;;;;;4186044;28;935;-71
2022/04/08 00:43:47;;;;;;;;;;;;;;;;;;4186566;28;1476;-71
2022/04/08 00:46:07;;;;;;;;;;;;;;;;;;4188244;28;857;-71
2022/04/08 00:48:28;;;;;;;;;;;;;;;;;;4187980;28;841;-70
2022/04/08 00:50:49;;;;;;;;;;;;;;;;;;4187929;28;1101;-71
2022/04/08 00:53:09;;;;;;;;;;;;;;;;;;4188122;28;873;-71
2022/04/08 00:55:30;;;;;;;;;;;;;;;;;;4187837;28;1079;-71
2022/04/08 00:57:51;;;;;;;;;;;;;;;;;;4187333;28;1979;-71
2022/04/08 01:03:43;;;;;;;;;;;;;;;;;;4186516;28;1693;-71
2022/04/08 01:06:03;;;;;;;;;;;;;;;;;;4186788;28;1372;-70
2022/04/08 01:08:24;;;;;;;;;;;;;;;;;;4187678;28;1334;-71
2022/04/08 01:10:45;;;;;;;;;;;;;;;;;;4187867;28;966;-71
2022/04/08 01:13:05;;;;;;;;;;;;;;;;;;4187151;28;1010;-71
2022/04/08 01:15:26;;;;;;;;;;;;;;;;;;4187386;28;950;-71
2022/04/08 01:17:47;;;;;;;;;;;;;;;;;;4187616;28;1945;-71
2022/04/08 01:20:07;;;;;;;;;;;;;;;;;;4187383;28;884;-71
2022/04/08 01:22:28;;;;;;;;;;;;;;;;;;4187417;28;826;-71
2022/04/08 01:24:49;;;;;;;;;;;;;;;;;;4186321;28;1457;-70
2022/04/08 01:27:10;;;;;;;;;;;;;;;;;;4186782;28;854;-71
2022/04/08 01:29:30;;;;;;;;;;;;;;;;;;4187801;28;936;-71
2022/04/08 01:31:51;;;;;;;;;;;;;;;;;;4187663;28;806;-71
2022/04/08 01:34:12;;;;;;;;;;;;;;;;;;4185823;28;1303;-70
2022/04/08 01:36:32;;;;;;;;;;;;;;;;;;4186199;28;876;-70
2022/04/08 01:38:53;;;;;;;;;;;;;;;;;;4187551;28;1914;-70
2022/04/08 01:41:16;;;;;;;;;;;;;;;;;;4187660;28;901;-70
2022/04/08 01:43:36;;;;;;;;;;;;;;;;;;4187576;28;947;-70
2022/04/08 01:45:57;;;;;;;;;;;;;;;;;;4187266;28;1141;-70
2022/04/08 01:48:18;;;;;;;;;;;;;;;;;;4188399;28;938;-70
2022/04/08 01:50:38;;;;;;;;;;;;;;;;;;4187200;28;817;-70
2022/04/08 01:52:59;;;;;;;;;;;;;;;;;;4187458;28;1257;-70
2022/04/08 01:55:20;;;;;;;;;;;;;;;;;;4186679;28;1148;-70
2022/04/08 01:57:41;;;;;;;;;;;;;;;;;;4187203;28;869;-70
2022/04/08 02:00:02;;;;;;;;;;;;;;;;;;4187394;28;1021;-70
2022/04/08 02:02:32;;;;;;;;;;;;;;;;;;4187533;28;938;-71
2022/04/08 02:04:53;;;;;;;;;;;;;;;;;;4187455;28;841;-70
2022/04/08 02:07:14;;;;;;;;;;;;;;;;;;4187442;28;1242;-71
2022/04/08 02:09:34;;;;;;;;;;;;;;;;;;4187382;28;952;-71
2022/04/08 02:11:55;;;;;;;;;;;;;;;;;;4187413;28;966;-71
2022/04/08 02:14:15;;;;;;;;;;;;;;;;;;4186982;28;900;-70
2022/04/08 02:16:35;;;;;;;;;;;;;;;;;;4187642;28;933;-70
2022/04/08 02:18:56;;;;;;;;;;;;;;;;;;4187606;28;1983;-70
2022/04/08 02:21:19;;;;;;;;;;;;;;;;;;4187037;28;980;-71
2022/04/08 02:23:40;;;;;;;;;;;;;;;;;;4187274;28;994;-70
2022/04/08 02:26:00;;;;;;;;;;;;;;;;;;4185941;28;1198;-70
2022/04/08 02:28:21;;;;;;;;;;;;;;;;;;4185672;28;1041;-70
2022/04/08 02:30:41;;;;;;;;;;;;;;;;;;4187107;28;937;-70
2022/04/08 02:33:04;;;;;;;;;;;;;;;;;;4186300;28;1301;-70
2022/04/08 02:35:24;;;;;;;;;;;;;;;;;;4186909;28;1007;-70
2022/04/08 02:37:45;;;;;;;;;;;;;;;;;;4187102;28;925;-70
2022/04/08 02:40:05;;;;;;;;;;;;;;;;;;4186977;28;954;-70
2022/04/08 02:42:30;;;;;;;;;;;;;;;;;;4185224;28;914;-71
2022/04/08 02:44:51;;;;;;;;;;;;;;;;;;4187131;28;979;-71
2022/04/08 02:47:12;;;;;;;;;;;;;;;;;;4186870;28;988;-70
2022/04/08 02:49:32;;;;;;;;;;;;;;;;;;4186890;28;934;-70
2022/04/08 02:51:53;;;;;;;;;;;;;;;;;;4186750;28;905;-70
2022/04/08 02:54:15;;;;;;;;;;;;;;;;;;4187311;28;899;-70
2022/04/08 02:56:39;;;;;;;;;;;;;;;;;;4186662;28;946;-71
2022/04/08 02:59:00;;;;;;;;;;;;;;;;;;4186197;28;1982;-71
2022/04/08 03:01:21;;;;;;;;;;;;;;;;;;4184981;28;1005;-70
2022/04/08 03:03:41;;;;;;;;;;;;;;;;;;4186401;28;980;-71
2022/04/08 03:06:02;;;;;;;;;;;;;;;;;;4186866;28;1018;-71
2022/04/08 03:08:23;;;;;;;;;;;;;;;;;;4186748;28;926;-70
2022/04/08 03:10:44;;;;;;;;;;;;;;;;;;4186246;28;1411;-70
2022/04/08 03:13:04;;;;;;;;;;;;;;;;;;4186654;28;869;-70
2022/04/08 03:15:25;;;;;;;;;;;;;;;;;;4186580;28;1166;-70
2022/04/08 03:17:46;;;;;;;;;;;;;;;;;;4186636;28;897;-71
2022/04/08 03:20:06;;;;;;;;;;;;;;;;;;4186727;28;1910;-71
2022/04/08 03:22:27;;;;;;;;;;;;;;;;;;4186663;28;1117;-71
2022/04/08 03:24:48;;;;;;;;;;;;;;;;;;4186593;28;1013;-70
2022/04/08 03:27:09;;;;;;;;;;;;;;;;;;4185054;28;922;-71
2022/04/08 03:29:29;;;;;;;;;;;;;;;;;;4186625;28;866;-70
2022/04/08 03:31:50;;;;;;;;;;;;;;;;;;4186206;28;827;-71
2022/04/08 03:34:10;;;;;;;;;;;;;;;;;;4186546;28;1139;-71
2022/04/08 03:36:31;;;;;;;;;;;;;;;;;;4186554;28;946;-71
2022/04/08 03:38:52;;;;;;;;;;;;;;;;;;4185049;28;1909;-70
2022/04/08 03:41:12;;;;;;;;;;;;;;;;;;4186637;28;1195;-70
2022/04/08 03:43:34;;;;;;;;;;;;;;;;;;4186368;28;826;-70
2022/04/08 03:45:54;;;;;;;;;;;;;;;;;;4188350;28;1188;-70
2022/04/08 03:48:22;;;;;;;;;;;;;;;;;;4187605;28;1159;-70
2022/04/08 03:50:42;;;;;;;;;;;;;;;;;;4189215;28;963;-70
2022/04/08 03:53:03;;;;;;;;;;;;;;;;;;4189197;28;1068;-70
2022/04/08 03:55:24;;;;;;;;;;;;;;;;;;4189150;28;776;-70
2022/04/08 03:57:44;;;;;;;;;;;;;;;;;;4189233;28;968;-71
2022/04/08 04:00:05;;;;;;;;;;;;;;;;;;4189145;28;1984;-71
2022/04/08 04:02:27;;;;;;;;;;;;;;;;;;4188705;28;1132;-70
2022/04/08 04:04:49;;;;;;;;;;;;;;;;;;4189402;28;917;-71
2022/04/08 04:07:10;;;;;;;;;;;;;;;;;;4189269;28;837;-70
2022/04/08 04:09:30;;;;;;;;;;;;;;;;;;4188976;28;1101;-70
2022/04/08 04:11:52;;;;;;;;;;;;;;;;;;4188941;28;866;-71
2022/04/08 04:14:12;;;;;;;;;;;;;;;;;;4188999;28;966;-70
2022/04/08 04:16:33;;;;;;;;;;;;;;;;;;4188631;28;949;-70
2022/04/08 04:18:53;;;;;;;;;;;;;;;;;;4188328;28;1905;-70
2022/04/08 04:21:15;;;;;;;;;;;;;;;;;;4188294;28;1221;-70
2022/04/08 04:23:36;;;;;;;;;;;;;;;;;;4188494;28;1181;-71
2022/04/08 04:25:56;;;;;;;;;;;;;;;;;;4188582;28;806;-70
2022/04/08 04:28:17;;;;;;;;;;;;;;;;;;4188790;28;979;-71
2022/04/08 04:30:38;;;;;;;;;;;;;;;;;;4188315;28;1027;-71
2022/04/08 04:33:00;;;;;;;;;;;;;;;;;;4187541;28;1347;-71
2022/04/08 04:35:21;;;;;;;;;;;;;;;;;;4188651;28;1180;-70
2022/04/08 04:37:42;;;;;;;;;;;;;;;;;;4188661;28;934;-71
2022/04/08 04:40:02;;;;;;;;;;;;;;;;;;4188675;28;1922;-71
2022/04/08 04:42:23;;;;;;;;;;;;;;;;;;4188453;28;920;-71
2022/04/08 04:44:44;;;;;;;;;;;;;;;;;;4188360;28;1028;-70
2022/04/08 04:47:04;;;;;;;;;;;;;;;;;;4188591;28;837;-71
2022/04/08 04:49:25;;;;;;;;;;;;;;;;;;4188560;28;950;-71
2022/04/08 04:51:46;;;;;;;;;;;;;;;;;;4188475;28;809;-71
2022/04/08 04:54:06;;;;;;;;;;;;;;;;;;4188536;28;1030;-71
2022/04/08 04:56:27;;;;;;;;;;;;;;;;;;4187358;28;990;-70
2022/04/08 04:58:48;;;;;;;;;;;;;;;;;;4188293;28;982;-71
2022/04/08 05:01:08;;;;;;;;;;;;;;;;;;4188349;28;1046;-71
2022/04/08 05:03:29;;;;;;;;;;;;;;;;;;4187269;28;1000;-71
2022/04/08 05:05:51;;;;;;;;;;;;;;;;;;4188032;28;1079;-70
2022/04/08 05:08:11;;;;;;;;;;;;;;;;;;4188290;28;874;-71
2022/04/08 05:10:32;;;;;;;;;;;;;;;;;;4188084;28;1038;-71
2022/04/08 05:12:53;;;;;;;;;;;;;;;;;;4188203;28;834;-71
2022/04/08 05:15:13;;;;;;;;;;;;;;;;;;4188397;28;923;-71
2022/04/08 05:17:35;;;;;;;;;;;;;;;;;;4188274;28;854;-70
2022/04/08 05:19:56;;;;;;;;;;;;;;;;;;4188116;28;1979;-70
2022/04/08 05:22:17;;;;;;;;;;;;;;;;;;4188179;28;991;-71
2022/04/08 05:24:37;;;;;;;;;;;;;;;;;;4188278;28;1048;-70
2022/04/08 05:26:57;;;;;;;;;;;;;;;;;;4188012;28;820;-70
2022/04/08 05:29:18;;;;;;;;;;;;;;;;;;4188104;28;812;-70
2022/04/08 05:31:39;;;;;;;;;;;;;;;;;;4187791;28;946;-70
2022/04/08 05:33:59;;;;;;;;;;;;;;;;;;4187857;28;1053;-71
2022/04/08 05:36:20;;;;;;;;;;;;;;;;;;4187919;28;989;-70
2022/04/08 05:38:41;;;;;;;;;;;;;;;;;;4187642;28;1027;-70
2022/04/08 05:41:01;;;;;;;;;;;;;;;;;;4187665;28;1905;-70
2022/04/08 05:43:22;;;;;;;;;;;;;;;;;;4187254;28;1177;-71
2022/04/08 05:45:43;;;;;;;;;;;;;;;;;;4187641;28;1195;-71
2022/04/08 05:48:03;;;;;;;;;;;;;;;;;;4187776;28;841;-71
2022/04/08 05:50:24;;;;;;;;;;;;;;;;;;4187416;28;1204;-71
2022/04/08 05:52:47;;;;;;;;;;;;;;;;;;4187837;28;877;-70
2022/04/08 05:55:07;;;;;;;;;;;;;;;;;;4187519;28;981;-71
2022/04/08 05:57:27;;;;;;;;;;;;;;;;;;4187471;28;987;-70
2022/04/08 05:59:48;;;;;;;;;;;;;;;;;;4186207;28;1910;-71
2022/04/08 06:02:09;;;;;;;;;;;;;;;;;;4188016;28;879;-70
2022/04/08 06:04:29;;;;;;;;;;;;;;;;;;4187703;28;1043;-70
2022/04/08 06:06:50;;;;;;;;;;;;;;;;;;4187725;28;1036;-70
2022/04/08 06:09:11;;;;;;;;;;;;;;;;;;4187658;28;852;-70
2022/04/08 06:11:32;;;;;;;;;;;;;;;;;;4187197;28;1591;-70
2022/04/08 06:13:53;;;;;;;;;;;;;;;;;;4187276;28;1171;-70
2022/04/08 06:16:13;;;;;;;;;;;;;;;;;;4187661;28;1324;-70
2022/04/08 06:18:35;;;;;;;;;;;;;;;;;;4187521;28;814;-71
2022/04/08 06:20:55;;;;;;;;;;;;;;;;;;4187303;28;1910;-70
2022/04/08 06:23:17;;;;;;;;;;;;;;;;;;4187453;28;1026;-70
2022/04/08 06:25:37;;;;;;;;;;;;;;;;;;4187289;28;977;-71
2022/04/08 06:27:58;;;;;;;;;;;;;;;;;;4187238;28;1387;-70
2022/04/08 06:30:18;;;;;;;;;;;;;;;;;;4187370;28;1088;-70
2022/04/08 06:32:39;;;;;;;;;;;;;;;;;;4187265;28;1054;-70
2022/04/08 06:35:00;;;;;;;;;;;;;;;;;;4187279;28;1022;-70
2022/04/08 06:37:22;;;;;;;;;;;;;;;;;;4187291;28;1104;-70
2022/04/08 06:39:44;;;;;;;;;;;;;;;;;;4187144;28;2003;-70
2022/04/08 06:42:05;;;;;;;;;;;;;;;;;;4186277;28;1032;-70
2022/04/08 06:44:26;;;;;;;;;;;;;;;;;;4185515;28;1071;-70
2022/04/08 06:46:46;;;;;;;;;;;;;;;;;;4187722;28;784;-70
2022/04/08 06:49:07;;;;;;;;;;;;;;;;;;4187046;28;815;-71
2022/04/08 06:51:27;;;;;;;;;;;;;;;;;;4187130;28;924;-70
2022/04/08 06:53:48;;;;;;;;;;;;;;;;;;4186883;28;1021;-70
2022/04/08 06:56:09;;;;;;;;;;;;;;;;;;4186834;28;1054;-70
2022/04/08 06:58:30;;;;;;;;;;;;;;;;;;4187024;28;950;-70
2022/04/08 07:00:51;;;;;;;;;;;;;;;;;;4186993;28;1918;-70
2022/04/08 07:03:12;;;;;;;;;;;;;;;;;;4186653;28;993;-72
2022/04/08 07:05:32;;;;;;;;;;;;;;;;;;4186580;28;1029;-70
2022/04/08 07:08:07;;;;;;;;;;;;;;;;;;4184742;28;1094;-70
2022/04/08 07:11:06;;;;;;;;;;;;;;;;;;4186205;28;1009;-70
2022/04/08 07:13:54;;;;;;;;;;;;;;;;;;4185847;28;1098;-70
2022/04/08 07:16:15;;;;;;;;;;;;;;;;;;4185396;28;1229;-70
2022/04/08 07:18:36;;;;;;;;;;;;;;;;;;4186741;28;902;-70
2022/04/08 07:20:56;;;;;;;;;;;;;;;;;;4189018;28;1985;-70
2022/04/08 07:23:17;;;;;;;;;;;;;;;;;;4189456;28;1049;-70
2022/04/08 07:25:39;;;;;;;;;;;;;;;;;;4189637;28;945;-70
2022/04/08 07:27:59;;;;;;;;;;;;;;;;;;4189270;28;1084;-70
2022/04/08 07:30:20;;;;;;;;;;;;;;;;;;4188540;28;846;-70
2022/04/08 07:32:40;;;;;;;;;;;;;;;;;;4189500;28;1389;-70
2022/04/08 07:35:01;;;;;;;;;;;;;;;;;;4172885;28;1048;-70
2022/04/08 07:37:22;;;;;;;;;;;;;;;;;;4172743;28;871;-71
2022/04/08 07:39:43;;;;;;;;;;;;;;;;;;4172957;28;874;-70
2022/04/08 07:42:03;;;;;;;;;;;;;;;;;;4172759;28;951;-70
2022/04/08 07:44:24;;;;;;;;;;;;;;;;;;4172743;28;1006;-70
2022/04/08 07:46:45;;;;;;;;;;;;;;;;;;4172882;28;943;-70
2022/04/08 07:49:05;;;;;;;;;;;;;;;;;;4171640;28;1265;-70
2022/04/08 07:51:27;;;;;;;;;;;;;;;;;;4172630;28;996;-70
2022/04/08 07:53:47;;;;;;;;;;;;;;;;;;4171037;28;887;-70
2022/04/08 07:56:08;;;;;;;;;;;;;;;;;;4172452;28;1172;-70
2022/04/08 07:58:29;;;;;;;;;;;;;;;;;;4172742;28;1274;-70
2022/04/08 08:00:51;;;;;;;;;;;;;;;;;;4172361;28;2116;-71
2022/04/08 08:03:15;;;;;;;;;;;;;;;;;;4172176;28;977;-70
2022/04/08 08:05:35;;;;;;;;;;;;;;;;;;4172281;28;956;-69
2022/04/08 08:07:56;;;;;;;;;;;;;;;;;;4172610;28;1003;-70
2022/04/08 08:10:16;;;;;;;;;;;;;;;;;;4172593;28;871;-69
2022/04/08 08:12:37;;;;;;;;;;;;;;;;;;4172574;28;801;-72
2022/04/08 08:14:57;;;;;;;;;;;;;;;;;;4172555;28;1028;-72
2022/04/08 08:17:18;;;;;;;;;;;;;;;;;;4171573;28;850;-72
2022/04/08 08:19:38;;;;;;;;;;;;;;;;;;4172534;28;833;-72
2022/04/08 08:21:59;;;;;;;;;;;;;;;;;;4172267;28;1912;-72
2022/04/08 08:24:19;;;;;;;;;;;;;;;;;;4172424;28;849;-72
2022/04/08 08:26:40;;;;;;;;;;;;;;;;;;4172377;28;1173;-72
2022/04/08 08:29:00;;;;;;;;;;;;;;;;;;4172332;28;822;-72
2022/04/08 08:31:22;;;;;;;;;;;;;;;;;;4171021;28;915;-73
2022/04/08 08:33:43;;;;;;;;;;;;;;;;;;4180592;28;1275;-72
2022/04/08 08:36:03;;;;;;;;;;;;;;;;;;4188632;28;983;-73
2022/04/08 08:38:24;;;;;;;;;;;;;;;;;;4187546;28;824;-72
2022/04/08 08:40:45;;;;;;;;;;;;;;;;;;4188265;28;1973;-72
2022/04/08 08:43:05;;;;;;;;;;;;;;;;;;4188696;28;936;-72
2022/04/08 08:45:29;;;;;;;;;;;;;;;;;;4188622;28;832;-72
2022/04/08 08:47:49;;;;;;;;;;;;;;;;;;4188663;28;1075;-72
2022/04/08 08:50:10;;;;;;;;;;;;;;;;;;4188512;28;1035;-72
2022/04/08 08:52:31;;;;;;;;;;;;;;;;;;4188448;28;970;-72
2022/04/08 08:54:52;;;;;;;;;;;;;;;;;;4188288;28;955;-72
2022/04/08 08:57:12;;;;;;;;;;;;;;;;;;4188385;28;1062;-72
2022/04/08 08:59:33;;;;;;;;;;;;;;;;;;4188314;28;1059;-72
2022/04/08 09:01:54;;;;;;;;;;;;;;;;;;4188082;28;1933;-68
2022/04/08 09:04:15;;;;;;;;;;;;;;;;;;4188326;28;886;-68
2022/04/08 09:06:36;;;;;;;;;;;;;;;;;;4188327;28;955;-69
2022/04/08 09:08:57;;;;;;;;;;;;;;;;;;4188390;28;953;-68
2022/04/08 09:11:18;;;;;;;;;;;;;;;;;;4188152;28;958;-68
2022/04/08 09:13:39;;;;;;;;;;;;;;;;;;4188207;28;918;-68
2022/04/08 09:16:00;;;;;;;;;;;;;;;;;;4187935;28;994;-68
2022/04/08 09:18:21;;;;;;;;;;;;;;;;;;4188208;28;894;-68
2022/04/08 09:20:42;;;;;;;;;;;;;;;;;;4187914;28;1989;-68
2022/04/08 09:23:03;;;;;;;;;;;;;;;;;;4188277;28;810;-68
2022/04/08 09:25:23;;;;;;;;;;;;;;;;;;4188188;28;1025;-68
2022/04/08 09:27:44;;;;;;;;;;;;;;;;;;4188359;28;815;-68
2022/04/08 09:30:05;;;;;;;;;;;;;;;;;;4187978;28;915;-68
2022/04/08 09:32:25;;;;;;;;;;;;;;;;;;4188153;28;859;-68
2022/04/08 09:34:46;;;;;;;;;;;;;;;;;;4186558;28;960;-68
2022/04/08 09:37:07;;;;;;;;;;;;;;;;;;4187704;28;870;-68
2022/04/08 09:39:27;;;;;;;;;;;;;;;;;;4188033;28;1071;-69
2022/04/08 09:41:51;;;;;;;;;;;;;;;;;;4187919;28;1988;-68
2022/04/08 09:44:12;;;;;;;;;;;;;;;;;;4187769;28;990;-68
2022/04/08 09:46:32;;;;;;;;;;;;;;;;;;4187900;28;994;-69
2022/04/08 09:48:53;;;;;;;;;;;;;;;;;;4187843;28;909;-69
2022/04/08 09:51:15;;;;;;;;;;;;;;;;;;4187791;28;1237;-68
2022/04/08 09:53:36;;;;;;;;;;;;;;;;;;4187969;28;956;-69
2022/04/08 09:55:56;;;;;;;;;;;;;;;;;;4187986;28;748;-69
2022/04/08 09:58:17;;;;;;;;;;;;;;;;;;4187668;28;1003;-68
2022/04/08 10:00:38;;;;;;;;;;;;;;;;;;4187536;28;846;-68
2022/04/08 10:02:59;;;;;;;;;;;;;;;;;;4187517;28;987;-68
2022/04/08 10:05:22;;;;;;;;;;;;;;;;;;4188056;28;1102;-69
2022/04/08 10:07:42;;;;;;;;;;;;;;;;;;4187244;28;938;-69
2022/04/08 10:10:03;;;;;;;;;;;;;;;;;;4185822;28;938;-68
2022/04/08 10:12:23;;;;;;;;;;;;;;;;;;4187179;28;950;-69
2022/04/08 10:14:44;;;;;;;;;;;;;;;;;;4187130;28;869;-69
2022/04/08 10:17:04;;;;;;;;;;;;;;;;;;4187852;28;914;-69
2022/04/08 10:19:25;;;;;;;;;;;;;;;;;;4187279;28;875;-69
2022/04/08 10:21:46;;;;;;;;;;;;;;;;;;4187236;28;1917;-69
2022/04/08 10:24:06;;;;;;;;;;;;;;;;;;4187228;28;925;-68
2022/04/08 10:26:27;;;;;;;;;;;;;;;;;;4186937;28;993;-69
2022/04/08 10:28:47;;;;;;;;;;;;;;;;;;4187278;28;818;-68
2022/04/08 10:31:13;;;;;;;;;;;;;;;;;;4187365;28;955;-69
2022/04/08 10:33:34;;;;;;;;;;;;;;;;;;4187118;28;1054;-69
2022/04/08 10:35:55;;;;;;;;;;;;;;;;;;4187373;28;850;-68
2022/04/08 10:38:15;;;;;;;;;;;;;;;;;;4187388;28;878;-68
2022/04/08 10:40:36;;;;;;;;;;;;;;;;;;4187282;28;877;-69
2022/04/08 10:42:57;;;;;;;;;;;;;;;;;;4186897;28;1985;-68
2022/04/08 10:45:18;;;;;;;;;;;;;;;;;;4187356;28;1017;-69
2022/04/08 10:47:39;;;;;;;;;;;;;;;;;;4186528;28;1193;-69
2022/04/08 10:50:00;;;;;;;;;;;;;;;;;;4187019;28;1017;-68
2022/04/08 10:52:21;;;;;;;;;;;;;;;;;;4186988;28;1055;-68
2022/04/08 10:54:42;;;;;;;;;;;;;;;;;;4186008;28;864;-70
2022/04/08 10:57:02;;;;;;;;;;;;;;;;;;4186999;28;855;-69
2022/04/08 10:59:23;;;;;;;;;;;;;;;;;;4186990;28;923;-68
2022/04/08 11:01:44;;;;;;;;;;;;;;;;;;4186571;28;1985;-69
2022/04/08 11:04:05;;;;;;;;;;;;;;;;;;4186882;28;831;-68
2022/04/08 11:06:25;;;;;;;;;;;;;;;;;;4186861;28;1029;-69
2022/04/08 11:08:46;;;;;;;;;;;;;;;;;;4186810;28;927;-69
2022/04/08 11:11:07;;;;;;;;;;;;;;;;;;4186824;28;934;-69
2022/04/08 11:13:27;;;;;;;;;;;;;;;;;;4186728;28;908;-69
2022/04/08 11:15:49;;;;;;;;;;;;;;;;;;4186717;28;893;-69
2022/04/08 11:18:10;;;;;;;;;;;;;;;;;;4186500;28;979;-69
2022/04/08 11:20:31;;;;;;;;;;;;;;;;;;4185143;28;1130;-69
2022/04/08 11:22:52;;;;;;;;;;;;;;;;;;4186776;28;1914;-69
2022/04/08 11:25:12;;;;;;;;;;;;;;;;;;4186432;28;823;-68
2022/04/08 11:27:33;;;;;;;;;;;;;;;;;;4186362;28;953;-68
2022/04/08 11:29:54;;;;;;;;;;;;;;;;;;4186430;28;790;-68
2022/04/08 11:32:14;;;;;;;;;;;;;;;;;;4186117;28;826;-68
2022/04/08 11:34:35;;;;;;;;;;;;;;;;;;4186619;28;1500;-69
2022/04/08 11:36:57;;;;;;;;;;;;;;;;;;4186266;28;991;-68
2022/04/08 11:39:17;;;;;;;;;;;;;;;;;;4186399;28;826;-68
2022/04/08 11:41:38;;;;;;;;;;;;;;;;;;4186458;28;1910;-68
2022/04/08 11:43:59;;;;;;;;;;;;;;;;;;4187045;28;834;-68
2022/04/08 11:46:19;;;;;;;;;;;;;;;;;;4186415;28;810;-68
2022/04/08 11:48:40;;;;;;;;;;;;;;;;;;4186539;28;1087;-68
2022/04/08 11:51:00;;;;;;;;;;;;;;;;;;4186563;28;1190;-68
2022/04/08 11:53:21;;;;;;;;;;;;;;;;;;4186394;28;1187;-68
2022/04/08 11:55:43;;;;;;;;;;;;;;;;;;4186607;28;801;-68
2022/04/08 11:58:03;;;;;;;;;;;;;;;;;;4185423;28;759;-68
2022/04/08 12:00:24;;;;;;;;;;;;;;;;;;4186223;28;818;-68
2022/04/08 12:02:44;;;;;;;;;;;;;;;;;;4186129;28;1907;-68
2022/04/08 12:05:05;;;;;;;;;;;;;;;;;;4186116;28;1094;-68
2022/04/08 12:07:28;;;;;;;;;;;;;;;;;;4189087;28;863;-68
2022/04/08 12:09:48;;;;;;;;;;;;;;;;;;4189236;28;934;-68
2022/04/08 12:12:09;;;;;;;;;;;;;;;;;;4189123;28;1193;-68
2022/04/08 12:14:30;;;;;;;;;;;;;;;;;;4188873;28;899;-68
2022/04/08 12:16:51;;;;;;;;;;;;;;;;;;4189100;28;882;-68
2022/04/08 12:19:12;;;;;;;;;;;;;;;;;;4188774;28;825;-68
2022/04/08 12:21:33;;;;;;;;;;;;;;;;;;4187910;28;1036;-68
2022/04/08 12:23:53;;;;;;;;;;;;;;;;;;4188906;28;818;-69
2022/04/08 12:26:14;;;;;;;;;;;;;;;;;;4187787;28;1187;-69
2022/04/08 12:28:35;;;;;;;;;;;;;;;;;;4187547;28;1034;-68
2022/04/08 12:30:55;;;;;;;;;;;;;;;;;;4188809;28;949;-68
2022/04/08 12:33:17;;;;;;;;;;;;;;;;;;4188784;28;1085;-68
2022/04/08 12:35:37;;;;;;;;;;;;;;;;;;4188767;28;858;-68
2022/04/08 12:37:59;;;;;;;;;;;;;;;;;;4188712;28;944;-68
2022/04/08 12:40:20;;;;;;;;;;;;;;;;;;4188448;28;1690;-68
2022/04/08 12:42:40;;;;;;;;;;;;;;;;;;4188191;28;1989;-68
2022/04/08 12:45:01;;;;;;;;;;;;;;;;;;4188662;28;873;-68
2022/04/08 12:47:22;;;;;;;;;;;;;;;;;;4188616;28;916;-68
2022/04/08 12:49:42;;;;;;;;;;;;;;;;;;4188602;28;1022;-68
2022/04/08 12:52:03;;;;;;;;;;;;;;;;;;4188800;28;1022;-68
2022/04/08 12:54:24;;;;;;;;;;;;;;;;;;4188236;28;818;-68
2022/04/08 12:56:44;;;;;;;;;;;;;;;;;;4187970;28;1020;-69
2022/04/08 12:59:05;;;;;;;;;;;;;;;;;;4188192;28;1013;-69
2022/04/08 13:01:26;;;;;;;;;;;;;;;;;;4188199;28;877;-68
2022/04/08 13:03:46;;;;;;;;;;;;;;;;;;4188202;28;1910;-68
2022/04/08 13:06:06;;;;;;;;;;;;;;;;;;4188504;28;847;-68
2022/04/08 13:08:28;;;;;;;;;;;;;;;;;;4188111;28;877;-68
2022/04/08 13:10:48;;;;;;;;;;;;;;;;;;4188001;28;850;-69
2022/04/08 13:13:09;;;;;;;;;;;;;;;;;;4187291;28;822;-68
2022/04/08 13:15:30;;;;;;;;;;;;;;;;;;4187859;28;861;-68
2022/04/08 13:17:50;;;;;;;;;;;;;;;;;;4186210;28;1001;-69
2022/04/08 13:20:12;;;;;;;;;;;;;;;;;;4188120;28;814;-68
2022/04/08 13:22:32;;;;;;;;;;;;;;;;;;4188084;28;1977;-68
2022/04/08 13:24:55;;;;;;;;;;;;;;;;;;4188077;28;1030;-69
2022/04/08 13:27:16;;;;;;;;;;;;;;;;;;4187694;28;986;-68
2022/04/08 13:29:37;;;;;;;;;;;;;;;;;;4186339;28;959;-68
2022/04/08 13:31:57;;;;;;;;;;;;;;;;;;4187931;28;969;-69
2022/04/08 13:34:19;;;;;;;;;;;;;;;;;;4187856;28;1275;-68
2022/04/08 13:36:40;;;;;;;;;;;;;;;;;;4185049;28;968;-68
2022/04/08 13:39:00;;;;;;;;;;;;;;;;;;4187737;28;1001;-69
2022/04/08 13:41:21;;;;;;;;;;;;;;;;;;4187476;28;1170;-69
2022/04/08 13:43:42;;;;;;;;;;;;;;;;;;4187344;28;2484;-69
2022/04/08 13:46:03;;;;;;;;;;;;;;;;;;4187774;28;1098;-69
2022/04/08 13:48:24;;;;;;;;;;;;;;;;;;4187924;28;957;-69
2022/04/08 13:50:44;;;;;;;;;;;;;;;;;;4186088;28;1122;-69
2022/04/08 13:53:05;;;;;;;;;;;;;;;;;;4187677;28;823;-69
2022/04/08 13:55:25;;;;;;;;;;;;;;;;;;4187531;28;919;-69
2022/04/08 13:57:48;;;;;;;;;;;;;;;;;;4187164;28;1082;-69
2022/04/08 14:00:08;;;;;;;;;;;;;;;;;;4187620;28;759;-69
2022/04/08 14:02:29;;;;;;;;;;;;;;;;;;4187379;28;1984;-69
2022/04/08 14:04:50;;;;;;;;;;;;;;;;;;4187454;28;945;-70
2022/04/08 14:07:11;;;;;;;;;;;;;;;;;;4187522;28;1003;-69
2022/04/08 14:09:31;;;;;;;;;;;;;;;;;;4187336;28;986;-69
2022/04/08 14:11:52;;;;;;;;;;;;;;;;;;4187075;28;887;-69
2022/04/08 14:14:12;;;;;;;;;;;;;;;;;;4187066;28;1146;-69
2022/04/08 14:16:33;;;;;;;;;;;;;;;;;;4187053;28;1071;-69
2022/04/08 14:18:55;;;;;;;;;;;;;;;;;;4186680;28;1000;-69
2022/04/08 14:21:16;;;;;;;;;;;;;;;;;;4186893;28;1048;-68
2022/04/08 14:23:37;;;;;;;;;;;;;;;;;;4186869;28;1910;-69
2022/04/08 14:25:58;;;;;;;;;;;;;;;;;;4185767;28;976;-69
2022/04/08 14:28:18;;;;;;;;;;;;;;;;;;4186172;28;1016;-68
2022/04/08 14:30:40;;;;;;;;;;;;;;;;;;4186470;28;930;-68
2022/04/08 14:33:01;;;;;;;;;;;;;;;;;;4187154;28;1115;-68
2022/04/08 14:35:21;;;;;;;;;;;;;;;;;;4187322;28;933;-69
2022/04/08 14:37:42;;;;;;;;;;;;;;;;;;4186536;28;853;-69
2022/04/08 14:40:03;;;;;;;;;;;;;;;;;;4186326;28;981;-68
2022/04/08 14:42:23;;;;;;;;;;;;;;;;;;4187388;28;816;-68
2022/04/08 14:44:44;;;;;;;;;;;;;;;;;;4187156;28;958;-69
2022/04/08 14:47:05;;;;;;;;;;;;;;;;;;4186939;28;1193;-68
2022/04/08 14:49:25;;;;;;;;;;;;;;;;;;4186950;28;1008;-69
2022/04/08 14:51:46;;;;;;;;;;;;;;;;;;4187054;28;881;-68
2022/04/08 14:54:07;;;;;;;;;;;;;;;;;;4185853;28;891;-68
2022/04/08 14:56:27;;;;;;;;;;;;;;;;;;4186960;28;880;-68
2022/04/08 14:58:48;;;;;;;;;;;;;;;;;;4187037;28;916;-69
2022/04/08 15:01:08;;;;;;;;;;;;;;;;;;4187000;28;900;-68
2022/04/08 15:03:29;;;;;;;;;;;;;;;;;;4187057;28;2008;-69
2022/04/08 15:05:49;;;;;;;;;;;;;;;;;;4186856;28;854;-68
2022/04/08 15:08:10;;;;;;;;;;;;;;;;;;4186537;28;1286;-69
2022/04/08 15:10:31;;;;;;;;;;;;;;;;;;4187021;28;846;-69
2022/04/08 15:12:53;;;;;;;;;;;;;;;;;;4187075;28;917;-69
2022/04/08 15:15:14;;;;;;;;;;;;;;;;;;4186805;28;1105;-69
2022/04/08 15:17:34;;;;;;;;;;;;;;;;;;4186901;28;938;-68
2022/04/08 15:19:55;;;;;;;;;;;;;;;;;;4186413;28;984;-69
2022/04/08 15:22:15;;;;;;;;;;;;;;;;;;4186808;28;1002;-68
2022/04/08 15:24:36;;;;;;;;;;;;;;;;;;4186491;28;1980;-69
2022/04/08 15:26:59;;;;;;;;;;;;;;;;;;4186743;28;822;-68
2022/04/08 15:29:19;;;;;;;;;;;;;;;;;;4186773;28;1026;-68
2022/04/08 15:31:40;;;;;;;;;;;;;;;;;;4186753;28;854;-69
2022/04/08 15:34:00;;;;;;;;;;;;;;;;;;4186507;28;1089;-68
2022/04/08 15:36:20;;;;;;;;;;;;;;;;;;4186459;28;839;-68
2022/04/08 15:38:41;;;;;;;;;;;;;;;;;;4186574;28;889;-69
2022/04/08 15:41:01;;;;;;;;;;;;;;;;;;4187421;28;862;-68
2022/04/08 15:43:22;;;;;;;;;;;;;;;;;;4189094;28;1913;-69
2022/04/08 15:45:43;;;;;;;;;;;;;;;;;;4189587;28;852;-69
2022/04/08 15:48:03;;;;;;;;;;;;;;;;;;4189992;28;954;-69
2022/04/08 15:50:24;;;;;;;;;;;;;;;;;;4188890;28;962;-69
2022/04/08 15:52:45;;;;;;;;;;;;;;;;;;4189545;28;1034;-68
2022/04/08 15:55:05;;;;;;;;;;;;;;;;;;4189394;28;930;-69
2022/04/08 15:57:26;;;;;;;;;;;;;;;;;;4189315;28;821;-69
2022/04/08 15:59:46;;;;;;;;;;;;;;;;;;4189193;28;1119;-69
2022/04/08 16:02:07;;;;;;;;;;;;;;;;;;4189325;28;818;-69
2022/04/08 16:04:28;;;;;;;;;;;;;;;;;;4188630;28;1909;-69
2022/04/08 16:06:48;;;;;;;;;;;;;;;;;;4189041;28;1045;-69
2022/04/08 16:09:09;;;;;;;;;;;;;;;;;;4189107;28;845;-68
2022/04/08 16:11:30;;;;;;;;;;;;;;;;;;4189187;28;911;-69
2022/04/08 16:13:50;;;;;;;;;;;;;;;;;;4188933;28;1205;-69
2022/04/08 16:16:11;;;;;;;;;;;;;;;;;;4188076;28;837;-69
2022/04/08 16:18:31;;;;;;;;;;;;;;;;;;4189090;28;922;-69
2022/04/08 16:20:52;;;;;;;;;;;;;;;;;;4188927;28;854;-69
2022/04/08 16:23:12;;;;;;;;;;;;;;;;;;4188610;28;1903;-68
2022/04/08 16:25:33;;;;;;;;;;;;;;;;;;4188854;28;1027;-69
2022/04/08 16:27:54;;;;;;;;;;;;;;;;;;4189024;28;814;-69
2022/04/08 16:30:14;;;;;;;;;;;;;;;;;;4189002;28;867;-62
2022/04/08 16:32:35;;;;;;;;;;;;;;;;;;4188535;28;1019;-63